Time;durP1;ratioP1;P1;durP2;ratioP2;P2;SDS_P1;SDS_P2;PMS_P1;PMS_P2;Temp;Humidity;BMP_temperature;BMP_pressure;BME280_temperature;BME280_humidity;BME280_pressure;Samples;Min_cycle;Max_cycle;Signal;HPM_P1;HPM_P2
2022/07/26 00:00:44;;;;;;;6.93;6.43;;;;;;;26.57;71.10;99129.19;5091720;28;20199;-66
2022/07/26 00:03:11;;;;;;;7.07;6.47;;;;;;;26.46;72.05;99130.25;5091085;28;20292;-66
2022/07/26 00:05:40;;;;;;;7.50;6.90;;;;;;;26.41;71.85;99129.91;5092079;28;20195;-66
2022/07/26 00:08:13;;;;;;;6.47;6.17;;;;;;;26.44;72.14;99131.38;5092462;28;20315;-65
2022/07/26 00:10:42;;;;;;;7.10;5.97;;;;;;;26.49;72.22;99137.84;5092156;28;20206;-65
2022/07/26 00:13:09;;;;;;;6.43;6.03;;;;;;;26.51;71.71;99133.25;5091641;28;20668;-65
2022/07/26 00:15:37;;;;;;;6.67;6.07;;;;;;;26.54;72.07;99137.38;5091427;28;20200;-66
2022/07/26 00:18:05;;;;;;;6.10;5.70;;;;;;;26.57;71.71;99131.81;5091678;28;20214;-66
2022/07/26 00:20:32;;;;;;;7.33;6.93;;;;;;;26.57;71.98;99131.81;5087820;28;20668;-66
2022/07/26 00:23:01;;;;;;;6.70;6.13;;;;;;;26.46;72.14;99108.41;5091584;28;20203;-65
2022/07/26 00:25:28;;;;;;;7.03;6.50;;;;;;;26.62;71.91;99129.56;5091062;28;20196;-65
2022/07/26 00:27:55;;;;;;;6.90;6.40;;;;;;;26.59;71.47;99130.69;5091831;28;20192;-65
2022/07/26 00:30:22;;;;;;;7.47;6.73;;;;;;;26.57;71.34;99131.81;5092129;28;20214;-66
2022/07/26 00:32:49;;;;;;;6.77;6.37;;;;;;;26.52;71.52;99128.84;5092025;28;20195;-65
2022/07/26 00:35:16;;;;;;;7.33;6.73;;;;;;;26.46;71.72;99124.19;5091816;28;20198;-66
2022/07/26 00:37:43;;;;;;;6.37;5.87;;;;;;;26.41;72.40;99121.19;5091791;28;20202;-66
2022/07/26 00:40:12;;;;;;;7.20;6.80;;;;;;;26.34;72.34;99125.41;5092038;28;20211;-65
2022/07/26 00:42:39;;;;;;;6.67;6.20;;;;;;;26.18;72.89;99112.94;5091985;28;20219;-65
2022/07/26 00:45:09;;;;;;;7.43;6.80;;;;;;;26.21;72.98;99124.97;5091639;28;20204;-65
2022/07/26 00:47:36;;;;;;;7.30;6.97;;;;;;;26.13;73.69;99117.81;5091875;28;20199;-65
2022/07/26 00:50:05;;;;;;;6.73;6.33;;;;;;;26.11;74.26;99131.09;5091605;28;20579;-65
2022/07/26 00:52:32;;;;;;;6.87;6.27;;;;;;;26.07;73.80;99123.69;5086063;28;20199;-65
2022/07/26 00:54:59;;;;;;;7.30;6.80;;;;;;;26.05;74.26;99125.63;5104694;28;20223;-65
2022/07/26 00:57:29;;;;;;;7.60;7.10;;;;;;;26.03;74.37;99117.91;5122651;27;20199;-65
2022/07/26 00:59:55;;;;;;;7.47;7.00;;;;;;;25.96;73.94;99122.09;5126771;27;20193;-65
2022/07/26 01:02:22;;;;;;;7.30;6.90;;;;;;;25.91;74.24;99121.72;5132601;27;20214;-66
2022/07/26 01:04:49;;;;;;;6.97;6.47;;;;;;;25.87;74.72;99122.19;5132451;28;20209;-65
2022/07/26 01:07:16;;;;;;;6.47;5.87;;;;;;;25.89;74.69;99120.22;5132353;27;20197;-65
2022/07/26 01:09:43;;;;;;;6.17;5.87;;;;;;;25.85;74.45;99119.69;5132554;28;20190;-66
2022/07/26 01:12:10;;;;;;;5.93;5.63;;;;;;;25.84;75.01;99112.81;5125784;27;20198;-65
2022/07/26 01:14:38;;;;;;;6.30;6.00;;;;;;;25.83;74.42;99113.78;5121321;27;20194;-65
2022/07/26 01:17:05;;;;;;;6.33;5.87;;;;;;;25.88;74.91;99119.38;5122587;27;20227;-65
2022/07/26 01:19:32;;;;;;;6.57;6.00;;;;;;;25.82;74.56;99119.97;5121825;27;20191;-65
2022/07/26 01:22:00;;;;;;;6.87;6.37;;;;;;;25.83;74.30;99111.16;5121338;27;20214;-66
2022/07/26 01:24:27;;;;;;;6.83;6.33;;;;;;;25.85;74.55;99113.63;5124566;27;20247;-66
2022/07/26 01:26:55;;;;;;;6.10;5.50;;;;;;;25.82;74.18;99112.09;5118701;27;20194;-66
2022/07/26 01:29:22;;;;;;;5.97;5.67;;;;;;;25.89;74.05;99114.97;5132447;27;20229;-65
2022/07/26 01:31:50;;;;;;;6.73;6.30;;;;;;;25.76;74.10;99088.25;5136366;27;20275;-66
2022/07/26 01:34:17;;;;;;;6.00;5.70;;;;;;;25.89;73.64;99115.78;5127642;27;20221;-65
2022/07/26 01:36:44;;;;;;;7.67;6.53;;;;;;;25.88;73.83;99114.13;5129781;27;20247;-65
2022/07/26 01:39:12;;;;;;;6.37;5.87;;;;;;;25.87;74.10;99109.88;5129055;27;20213;-65
2022/07/26 01:41:39;;;;;;;5.97;5.57;;;;;;;25.87;74.13;99112.50;5120710;27;20202;-65
2022/07/26 01:44:06;;;;;;;6.63;6.13;;;;;;;25.86;74.19;99108.22;5126292;27;20194;-65
2022/07/26 01:46:33;;;;;;;6.40;6.10;;;;;;;25.85;74.58;99106.56;5130473;27;20190;-65
2022/07/26 01:49:01;;;;;;;9.37;7.60;;;;;;;25.87;74.48;99111.66;5118046;27;20203;-65
2022/07/26 01:51:28;;;;;;;5.93;5.63;;;;;;;25.77;74.68;99095.16;5122919;27;20259;-66
2022/07/26 01:53:55;;;;;;;6.53;6.23;;;;;;;25.85;74.40;99103.94;5124489;27;20230;-65
2022/07/26 01:56:23;;;;;;;7.37;6.77;;;;;;;25.83;74.77;99107.69;5119014;27;20213;-66
2022/07/26 01:58:50;;;;;;;7.30;6.80;;;;;;;25.78;74.46;99108.16;5128701;27;20670;-66
2022/07/26 02:01:17;;;;;;;7.60;6.83;;;;;;;25.72;74.83;99103.47;5129938;27;20209;-66
2022/07/26 02:03:44;;;;;;;7.63;7.07;;;;;;;25.58;75.65;99085.63;5132656;27;20214;-65
2022/07/26 02:06:11;;;;;;;8.17;7.60;;;;;;;25.63;75.46;99099.13;5135359;27;20198;-66
2022/07/26 02:08:38;;;;;;;8.30;7.67;;;;;;;25.59;75.57;99103.84;5134988;27;20585;-65
2022/07/26 02:11:05;;;;;;;7.67;7.17;;;;;;;25.53;75.75;99107.06;5135533;27;20193;-65
2022/07/26 02:13:36;;;;;;;12.87;7.73;;;;;;;25.49;75.89;99103.06;5130256;27;20202;-66
2022/07/26 02:16:04;;;;;;;7.83;7.43;;;;;;;25.43;76.30;99098.38;5126481;27;20248;-65
2022/07/26 02:18:32;;;;;;;8.37;7.77;;;;;;;25.40;76.03;99103.94;5124190;27;20247;-66
2022/07/26 02:20:59;;;;;;;8.37;7.90;;;;;;;25.39;76.25;99101.47;5129371;27;20205;-65
2022/07/26 02:23:28;;;;;;;8.07;7.43;;;;;;;25.27;76.06;99086.88;5124293;27;20218;-65
2022/07/26 02:25:56;;;;;;;9.13;8.43;;;;;;;25.30;75.97;99091.84;5128583;27;20195;-65
2022/07/26 02:28:23;;;;;;;9.40;8.47;;;;;;;25.17;76.61;99080.88;5132606;27;20626;-65
2022/07/26 02:30:51;;;;;;;9.67;8.97;;;;;;;25.07;77.08;99081.72;5128874;27;20201;-66
2022/07/26 02:33:19;;;;;;;10.00;9.07;;;;;;;25.10;77.32;99096.38;5130278;27;20202;-65
2022/07/26 02:35:47;;;;;;;9.40;8.67;;;;;;;25.08;77.84;99093.88;5120970;27;20195;-65
2022/07/26 02:38:15;;;;;;;9.67;8.87;;;;;;;25.06;78.44;99095.84;5122331;27;20591;-65
2022/07/26 02:40:42;;;;;;;9.93;9.03;;;;;;;25.02;78.71;99099.72;5127488;27;20195;-66
2022/07/26 02:43:10;;;;;;;9.40;8.80;;;;;;;24.98;79.02;99098.34;5131860;27;20210;-65
2022/07/26 02:45:37;;;;;;;8.53;7.93;;;;;;;24.96;79.37;99100.28;5124955;27;20190;-66
2022/07/26 02:48:06;;;;;;;8.67;8.10;;;;;;;24.93;79.27;99105.81;5121802;27;20201;-66
2022/07/26 02:50:33;;;;;;;9.53;8.90;;;;;;;24.92;79.09;99101.53;5123296;27;20202;-65
2022/07/26 02:53:00;;;;;;;9.63;9.03;;;;;;;24.89;78.70;99104.44;5127519;27;20227;-65
2022/07/26 02:55:27;;;;;;;9.20;8.60;;;;;;;24.87;79.53;99101.16;5128258;27;20218;-65
2022/07/26 02:57:54;;;;;;;9.03;8.43;;;;;;;24.89;79.38;99106.25;5126644;27;20194;-65
2022/07/26 03:00:23;;;;;;;8.70;8.17;;;;;;;24.87;80.04;99106.41;5131374;27;20209;-65
2022/07/26 03:02:51;;;;;;;9.93;8.97;;;;;;;24.83;79.84;99105.03;5123054;27;20814;-65
2022/07/26 03:05:20;;;;;;;8.80;8.30;;;;;;;24.81;79.61;99106.13;5129218;27;20275;-65
2022/07/26 03:07:47;;;;;;;10.03;9.13;;;;;;;24.74;80.50;99108.47;5123863;27;20190;-66
2022/07/26 03:10:14;;;;;;;8.97;8.27;;;;;;;24.70;80.75;99109.72;5117405;27;20286;-65
2022/07/26 03:12:41;;;;;;;9.70;9.10;;;;;;;24.71;80.61;99115.81;5121797;27;20574;-65
2022/07/26 03:15:09;;;;;;;9.50;8.80;;;;;;;24.70;80.57;99120.22;5133343;27;20611;-65
2022/07/26 03:17:36;;;;;;;10.07;8.67;;;;;;;24.70;80.79;99120.22;5128344;27;20666;-65
2022/07/26 03:20:03;;;;;;;14.17;8.67;;;;;;;24.69;81.03;99123.78;5117613;27;20195;-65
2022/07/26 03:22:31;;;;;;;13.90;8.90;;;;;;;24.66;81.75;99126.69;5133683;27;20669;-65
2022/07/26 03:24:58;;;;;;;8.97;8.20;;;;;;;24.64;81.15;99127.81;5116900;27;20558;-65
2022/07/26 03:27:25;;;;;;;10.60;9.80;;;;;;;24.59;81.10;99130.06;5120973;27;20662;-65
2022/07/26 03:29:52;;;;;;;9.40;8.70;;;;;;;24.55;80.85;99132.97;5134042;27;20256;-65
2022/07/26 03:32:19;;;;;;;9.63;9.10;;;;;;;24.55;80.64;99132.13;5119558;27;20215;-66
2022/07/26 03:34:46;;;;;;;9.43;8.67;;;;;;;24.51;80.82;99126.34;5128728;27;20198;-65
2022/07/26 03:37:12;;;;;;;10.73;10.03;;;;;;;24.55;79.73;99134.75;5133798;27;20205;-65
2022/07/26 03:39:41;;;;;;;12.53;11.53;;;;;;;24.49;80.17;99143.16;5130594;27;20201;-65
2022/07/26 03:42:07;;;;;;;10.63;9.63;;;;;;;24.47;80.08;99137.22;5124682;27;20602;-65
2022/07/26 03:44:34;;;;;;;11.13;10.00;;;;;;;24.47;80.56;99140.69;5124647;27;20221;-66
2022/07/26 03:47:01;;;;;;;10.73;9.83;;;;;;;24.50;80.83;99139.56;5129757;27;20197;-65
2022/07/26 03:49:28;;;;;;;10.40;9.57;;;;;;;24.53;81.03;99145.34;5133542;27;20569;-65
2022/07/26 03:51:55;;;;;;;11.23;10.30;;;;;;;24.56;81.29;99144.25;5133798;27;20209;-65
2022/07/26 03:54:22;;;;;;;9.97;9.37;;;;;;;24.61;81.40;99144.66;5133313;27;20233;-65
2022/07/26 03:56:49;;;;;;;10.63;9.60;;;;;;;24.69;81.14;99144.75;5133345;27;20194;-65
2022/07/26 03:59:17;;;;;;;9.97;9.13;;;;;;;24.77;80.95;99147.53;5133329;27;20693;-66
2022/07/26 04:01:45;;;;;;;9.73;9.03;;;;;;;24.84;80.95;99143.41;5133403;27;20731;-65
2022/07/26 04:04:14;;;;;;;12.83;9.37;;;;;;;24.90;80.25;99142.81;5133208;27;20591;-65
2022/07/26 04:06:41;;;;;;;11.17;10.20;;;;;;;24.90;79.78;99132.34;5122550;27;20289;-65
2022/07/26 04:09:08;;;;;;;10.83;10.07;;;;;;;24.92;79.57;99130.38;5117498;27;20662;-65
2022/07/26 04:11:35;;;;;;;10.10;9.37;;;;;;;25.00;79.64;99133.13;5124166;27;20270;-65
2022/07/26 04:14:04;;;;;;;12.07;9.53;;;;;;;24.98;79.59;99121.09;5117241;27;20589;-65
2022/07/26 04:16:31;;;;;;;10.30;9.60;;;;;;;25.17;79.47;99135.97;5113830;27;20202;-66
2022/07/26 04:18:58;;;;;;;10.53;9.63;;;;;;;25.28;80.05;99135.75;5128162;27;20684;-66
2022/07/26 04:21:25;;;;;;;11.33;10.33;;;;;;;25.40;79.49;99130.16;5125165;27;20205;-65
2022/07/26 04:23:51;;;;;;;11.10;10.20;;;;;;;25.51;79.01;99123.94;5126778;27;20210;-66
2022/07/26 04:26:19;;;;;;;11.47;10.37;;;;;;;25.56;78.19;99122.50;5129000;27;20194;-65
2022/07/26 04:28:46;;;;;;;14.17;10.70;;;;;;;25.71;77.12;99138.59;5129224;27;20194;-66
2022/07/26 04:31:14;;;;;;;10.33;9.27;;;;;;;25.86;77.27;99136.28;5124671;27;20195;-65
2022/07/26 04:33:41;;;;;;;9.53;8.80;;;;;;;26.01;76.23;99132.97;5124341;27;20190;-65
2022/07/26 04:36:08;;;;;;;9.00;8.40;;;;;;;26.15;76.31;99138.69;5117001;27;20218;-65
2022/07/26 04:38:35;;;;;;;9.53;8.83;;;;;;;26.25;75.69;99123.69;5120195;27;20272;-65
2022/07/26 04:41:02;;;;;;;10.10;9.30;;;;;;;26.41;74.74;99132.53;5122459;27;20189;-66
2022/07/26 04:43:29;;;;;;;10.33;9.30;;;;;;;26.56;75.12;99138.03;5126802;27;20221;-66
2022/07/26 04:45:56;;;;;;;10.07;9.23;;;;;;;26.67;74.72;99136.97;5116813;27;20198;-65
2022/07/26 04:48:24;;;;;;;10.63;9.83;;;;;;;26.83;74.92;99135.31;5127011;27;20193;-66
2022/07/26 04:50:52;;;;;;;9.77;9.10;;;;;;;27.03;73.08;99139.38;5114325;28;20251;-66
2022/07/26 04:53:18;;;;;;;9.47;8.63;;;;;;;27.23;73.00;99144.41;5118320;27;20666;-66
2022/07/26 04:55:46;;;;;;;10.63;9.80;;;;;;;27.42;71.27;99149.41;5126605;27;20270;-66
2022/07/26 04:58:13;;;;;;;9.97;9.10;;;;;;;27.55;71.30;99126.94;5121247;27;20578;-66
2022/07/26 05:00:40;;;;;;;8.93;8.13;;;;;;;27.78;69.93;99137.69;5123865;28;20213;-66
2022/07/26 05:03:07;;;;;;;9.43;8.77;;;;;;;27.94;68.69;99140.38;5126823;27;20274;-66
2022/07/26 05:05:35;;;;;;;9.37;8.70;;;;;;;28.10;69.06;99140.41;5125309;27;20581;-66
2022/07/26 05:08:03;;;;;;;8.27;7.53;;;;;;;28.24;69.48;99132.84;5125262;28;20195;-66
2022/07/26 05:10:32;;;;;;;8.73;8.00;;;;;;;28.50;68.72;99130.81;5123916;28;20284;-66
2022/07/26 05:12:59;;;;;;;8.33;7.73;;;;;;;28.60;68.00;99115.66;5113004;28;20656;-65
2022/07/26 05:15:26;;;;;;;8.37;7.77;;;;;;;28.91;66.74;99134.25;5111774;28;20276;-66
2022/07/26 05:17:55;;;;;;;7.57;7.17;;;;;;;29.09;63.48;99134.84;5127985;28;20689;-66
2022/07/26 05:20:22;;;;;;;8.30;7.80;;;;;;;29.27;62.29;99130.22;5126836;28;20563;-66
2022/07/26 05:22:50;;;;;;;8.10;7.53;;;;;;;29.38;62.48;99121.06;5120794;28;20321;-66
2022/07/26 05:25:17;;;;;;;8.60;7.90;;;;;;;29.51;62.10;99129.25;5130536;28;20209;-66
2022/07/26 05:27:44;;;;;;;8.45;7.60;;;;;;;29.69;61.77;99119.25;5121603;28;20203;-65
2022/07/26 05:30:11;;;;;;;8.70;7.50;;;;;;;29.86;62.02;99127.91;5122442;28;20203;-66
2022/07/26 05:32:38;;;;;;;7.90;7.50;;;;;;;29.96;60.45;99131.16;5120673;28;20198;-66
2022/07/26 05:35:06;;;;;;;9.00;8.07;;;;;;;30.00;59.55;99125.34;5127148;27;20191;-66
2022/07/26 05:37:33;;;;;;;8.05;7.55;;;;;;;30.10;61.01;99125.94;5122627;28;20194;-66
2022/07/26 05:40:01;;;;;;;8.00;7.57;;;;;;;30.31;60.85;99133.19;5119772;28;20194;-66
2022/07/26 05:42:28;;;;;;;7.75;7.35;;;;;;;30.46;58.94;99123.53;5117942;28;20623;-66
2022/07/26 05:44:55;;;;;;;9.07;8.48;;;;;;;30.48;57.53;99126.78;5118583;28;20218;-66
2022/07/26 05:47:22;;;;;;;7.85;7.45;;;;;;;30.63;59.10;99130.28;5121585;28;20589;-66
2022/07/26 05:49:49;;;;;;;9.70;9.10;;;;;;;30.69;56.87;99129.59;5131504;28;20273;-66
2022/07/26 05:52:16;;;;;;;9.05;8.55;;;;;;;30.68;57.48;99127.09;5126700;27;20248;-66
2022/07/26 05:54:43;;;;;;;8.82;8.23;;;;;;;30.89;59.35;99124.56;5131842;28;20221;-66
2022/07/26 05:57:11;;;;;;;9.73;8.88;;;;;;;30.87;57.60;99120.44;5119031;28;20217;-67
2022/07/26 05:59:38;;;;;;;9.32;8.73;;;;;;;31.08;56.62;99124.03;5119460;28;20194;-65
2022/07/26 06:02:20;;;;;;;9.05;8.55;;;;;;;31.36;56.56;99126.84;5077682;27;20198;-65
2022/07/26 06:04:46;;;;;;;9.68;9.13;;;;;;;31.51;55.93;99122.38;5121369;27;20211;-67
2022/07/26 06:07:13;;;;;;;9.70;8.98;;;;;;;31.58;54.54;99122.44;5123879;27;20199;-66
2022/07/26 06:09:41;;;;;;;9.68;9.05;;;;;;;31.67;53.46;99123.97;5129001;27;20220;-67
2022/07/26 06:12:08;;;;;;;9.55;8.95;;;;;;;31.60;54.06;99128.41;5120008;27;20191;-67
2022/07/26 06:14:36;;;;;;;9.23;8.73;;;;;;;31.81;54.83;99122.28;5121747;27;20195;-66
2022/07/26 06:17:04;;;;;;;9.93;8.98;;;;;;;31.99;55.36;99118.16;5124599;27;20262;-66
2022/07/26 06:19:31;;;;;;;9.65;9.15;;;;;;;32.08;52.31;99118.91;5119590;27;20202;-67
2022/07/26 06:21:57;;;;;;;9.52;8.68;;;;;;;32.06;53.09;99124.41;5124072;27;20202;-68
2022/07/26 06:24:24;;;;;;;9.63;8.90;;;;;;;32.18;52.61;99117.56;5119945;27;20219;-66
2022/07/26 06:26:52;;;;;;;9.18;8.68;;;;;;;32.31;54.58;99108.09;5124697;27;20198;-66
2022/07/26 06:29:19;;;;;;;9.93;9.32;;;;;;;32.30;51.16;99098.47;5129194;27;20205;-66
2022/07/26 06:31:47;;;;;;;9.82;9.23;;;;;;;32.50;52.24;99110.91;5128597;27;20190;-66
2022/07/26 06:34:14;;;;;;;10.45;9.70;;;;;;;32.55;51.73;99113.78;5127585;27;20209;-66
2022/07/26 06:36:41;;;;;;;10.95;9.45;;;;;;;32.51;51.14;99095.78;5127154;27;20667;-66
2022/07/26 06:39:08;;;;;;;10.73;9.82;;;;;;;32.73;51.15;99102.72;5117578;27;20247;-66
2022/07/26 06:41:35;;;;;;;10.48;9.68;;;;;;;32.78;49.69;99097.63;5118877;27;20206;-66
2022/07/26 06:44:02;;;;;;;10.60;9.70;;;;;;;32.98;49.35;99098.56;5118980;27;20225;-66
2022/07/26 06:46:28;;;;;;;11.05;10.07;;;;;;;33.07;49.23;99099.22;5123636;27;20582;-67
2022/07/26 06:48:57;;;;;;;11.48;10.65;;;;;;;33.23;49.94;99098.91;5121781;27;20251;-68
2022/07/26 06:51:23;;;;;;;11.05;10.25;;;;;;;33.05;49.97;99094.09;5121348;27;20209;-67
2022/07/26 06:53:50;;;;;;;9.75;9.05;;;;;;;33.22;48.55;99089.28;5133098;27;20293;-67
2022/07/26 06:56:17;;;;;;;9.90;9.20;;;;;;;33.40;48.04;99088.75;5130865;27;20637;-68
2022/07/26 06:58:45;;;;;;;9.95;9.32;;;;;;;33.55;48.00;99090.22;5122026;27;20194;-67
2022/07/26 07:01:11;;;;;;;10.30;9.63;;;;;;;33.90;47.64;99087.44;5118886;27;20199;-67
2022/07/26 07:03:38;;;;;;;10.68;9.98;;;;;;;34.21;46.40;99090.38;5119445;27;20566;-67
2022/07/26 07:06:09;;;;;;;12.45;11.18;;;;;;;34.45;45.35;99091.56;5132141;27;20194;-67
2022/07/26 07:08:36;;;;;;;11.18;10.18;;;;;;;34.77;45.78;99088.06;5132363;27;20688;-67
2022/07/26 07:11:02;;;;;;;11.25;10.48;;;;;;;34.58;44.96;99091.53;5129753;27;20194;-67
2022/07/26 07:13:29;;;;;;;11.52;10.50;;;;;;;34.68;45.55;99095.47;5131712;27;20669;-67
2022/07/26 07:15:56;;;;;;;15.48;10.85;;;;;;;34.92;43.99;99091.31;5120451;27;20203;-67
2022/07/26 07:18:23;;;;;;;11.10;10.20;;;;;;;35.05;44.74;99087.78;5120834;27;20202;-67
2022/07/26 07:20:50;;;;;;;10.60;9.73;;;;;;;35.15;43.73;99094.34;5126240;27;20211;-67
2022/07/26 07:23:21;;;;;;;11.20;10.15;;;;;;;35.05;42.83;99093.09;5116381;27;20202;-67
2022/07/26 07:25:47;;;;;;;10.82;10.20;;;;;;;35.28;43.24;99094.25;5132514;27;20593;-67
2022/07/26 07:28:14;;;;;;;9.82;9.32;;;;;;;35.65;43.11;99105.16;5134325;27;20204;-67
2022/07/26 07:30:41;;;;;;;12.23;11.32;;;;;;;35.72;42.34;99106.78;5132709;27;20270;-66
2022/07/26 07:33:11;;;;;;;11.20;10.07;;;;;;;35.73;42.20;99096.94;5128951;27;20293;-67
2022/07/26 07:35:40;;;;;;;11.00;10.20;;;;;;;35.79;42.74;99090.72;5128854;27;20194;-67
2022/07/26 07:38:08;;;;;;;9.82;9.23;;;;;;;36.11;42.28;99100.38;5127203;27;20250;-67
2022/07/26 07:40:37;;;;;;;10.95;9.95;;;;;;;36.04;40.66;99094.25;5133248;27;20202;-67
2022/07/26 07:43:04;;;;;;;11.95;10.82;;;;;;;36.19;42.05;99097.44;5135919;27;20206;-67
2022/07/26 07:45:32;;;;;;;11.02;10.40;;;;;;;36.36;42.51;99094.19;5132497;27;20306;-67
2022/07/26 07:47:59;;;;;;;11.70;10.88;;;;;;;36.44;40.92;99093.94;5120552;27;20225;-67
2022/07/26 07:50:26;;;;;;;10.63;10.00;;;;;;;36.48;41.83;99098.59;5126636;27;20254;-67
2022/07/26 07:52:53;;;;;;;11.98;11.07;;;;;;;36.37;40.63;99098.50;5130601;27;20629;-66
2022/07/26 07:55:20;;;;;;;11.02;10.30;;;;;;;35.98;41.50;99097.78;5123784;27;20225;-67
2022/07/26 07:57:48;;;;;;;9.98;9.48;;;;;;;36.05;41.56;99093.22;5125376;27;20206;-67
2022/07/26 08:00:18;;;;;;;10.70;9.98;;;;;;;35.88;41.31;99102.78;5125360;27;20195;-67
2022/07/26 08:02:45;;;;;;;11.52;10.60;;;;;;;35.92;41.85;99071.97;5129192;27;20242;-67
2022/07/26 08:05:12;;;;;;;10.65;10.05;;;;;;;36.22;41.99;99096.19;5133597;27;20217;-66
2022/07/26 08:07:39;;;;;;;11.75;10.77;;;;;;;36.26;41.10;99087.50;5128509;27;20341;-69
2022/07/26 08:10:07;;;;;;;12.98;10.82;;;;;;;36.38;42.33;99084.97;5133205;27;20206;-68
2022/07/26 08:12:34;;;;;;;11.25;10.25;;;;;;;36.24;41.92;99086.94;5130818;27;20221;-66
2022/07/26 08:15:02;;;;;;;11.45;10.45;;;;;;;36.43;41.01;99087.78;5120485;27;20259;-68
2022/07/26 08:17:29;;;;;;;10.73;9.73;;;;;;;36.73;40.12;99072.72;5121760;27;20214;-69
2022/07/26 08:19:56;;;;;;;10.77;10.02;;;;;;;36.87;40.06;99081.38;5128712;27;20849;-69
2022/07/26 08:22:23;;;;;;;11.77;10.95;;;;;;;36.58;39.08;99079.44;5124348;27;20207;-67
2022/07/26 08:24:51;;;;;;;11.60;10.93;;;;;;;36.63;39.40;99068.91;5118209;27;20590;-67
2022/07/26 08:27:18;;;;;;;10.52;9.73;;;;;;;36.81;39.00;99071.59;5125272;27;20204;-67
2022/07/26 08:29:44;;;;;;;10.70;10.10;;;;;;;36.80;39.09;99064.63;5121437;27;20206;-67
2022/07/26 08:32:13;;;;;;;11.27;10.57;;;;;;;36.91;38.84;99058.50;5123988;27;20202;-67
2022/07/26 08:34:39;;;;;;;9.90;9.30;;;;;;;37.16;39.34;99053.13;5124782;27;20199;-67
2022/07/26 08:37:07;;;;;;;12.05;11.27;;;;;;;37.33;39.97;99052.25;5129943;27;20210;-67
2022/07/26 08:39:35;;;;;;;11.27;10.57;;;;;;;37.55;39.84;99055.25;5125217;27;20193;-67
2022/07/26 08:42:03;;;;;;;12.63;11.73;;;;;;;37.19;39.68;99050.78;5125182;27;20250;-66
2022/07/26 08:44:31;;;;;;;12.82;11.77;;;;;;;36.99;40.66;99050.22;5124746;27;20214;-66
2022/07/26 08:47:01;;;;;;;10.73;10.05;;;;;;;36.36;41.98;99043.47;5122751;27;20203;-67
2022/07/26 08:49:30;;;;;;;10.18;9.45;;;;;;;36.71;39.82;99052.56;5118093;27;20682;-67
2022/07/26 08:51:58;;;;;;;11.05;10.32;;;;;;;36.95;39.53;99049.03;5123531;27;20190;-66
2022/07/26 08:54:26;;;;;;;10.85;10.05;;;;;;;36.88;39.15;99048.28;5123957;27;20225;-66
2022/07/26 08:56:53;;;;;;;11.30;10.45;;;;;;;36.53;39.76;99047.22;5132547;27;20201;-66
2022/07/26 08:59:20;;;;;;;11.85;11.05;;;;;;;36.54;41.03;99048.88;5129736;28;20197;-66
2022/07/26 09:01:56;;;;;;;10.90;10.10;;;;;;;36.13;40.50;99052.09;5129078;27;20213;-65
2022/07/26 09:04:26;;;;;;;10.90;10.27;;;;;;;35.89;41.68;99044.91;5119385;27;20221;-66
2022/07/26 09:07:03;;;;;;;9.82;9.25;;;;;;;35.71;40.79;99040.28;5129460;28;20227;-67
2022/07/26 09:09:31;;;;;;;10.60;9.80;;;;;;;35.66;41.15;99037.47;5124834;28;20193;-66
2022/07/26 09:11:59;;;;;;;9.68;9.18;;;;;;;35.47;42.48;99033.88;5127805;28;20202;-67
2022/07/26 09:14:37;;;;;;;11.10;10.20;;;;;;;35.42;43.20;99030.19;5130761;28;20195;-66
2022/07/26 09:17:07;;;;;;;10.32;9.63;;;;;;;35.65;41.61;99025.16;5122798;28;20198;-65
2022/07/26 09:19:35;;;;;;;9.68;9.07;;;;;;;35.34;42.13;99025.13;5119380;28;20210;-67
2022/07/26 09:22:11;;;;;;;9.63;9.00;;;;;;;35.60;42.11;99022.34;5120205;28;20210;-67
2022/07/26 09:24:41;;;;;;;10.95;10.25;;;;;;;35.80;41.86;99028.34;5128708;27;20209;-66
2022/07/26 09:27:10;;;;;;;9.65;9.15;;;;;;;35.82;41.55;99010.25;5122263;28;20205;-66
2022/07/26 09:29:45;;;;;;;10.70;9.57;;;;;;;35.49;42.25;99009.66;5121774;28;20210;-65
2022/07/26 09:32:16;;;;;;;9.88;9.25;;;;;;;35.59;42.68;99004.69;5121363;28;20193;-66
2022/07/26 09:34:43;;;;;;;9.60;9.10;;;;;;;35.64;41.53;99012.88;5121329;28;20201;-65
2022/07/26 09:37:11;;;;;;;9.23;8.73;;;;;;;35.57;42.49;99010.22;5122939;27;20202;-66
2022/07/26 09:39:53;;;;;;;9.60;9.10;;;;;;;35.63;41.16;99001.38;5124472;27;20218;-66
2022/07/26 09:42:21;;;;;;;9.77;9.15;;;;;;;35.71;41.82;99001.09;5120532;27;20727;-67
2022/07/26 09:44:48;;;;;;;10.48;9.77;;;;;;;35.93;41.73;99001.53;5132726;27;20709;-66
2022/07/26 09:47:15;;;;;;;9.45;8.80;;;;;;;36.13;40.87;99002.22;5130701;27;20205;-67
2022/07/26 09:49:42;;;;;;;8.80;8.30;;;;;;;36.30;40.88;99000.63;5127019;27;20198;-66
2022/07/26 09:52:16;;;;;;;9.38;8.77;;;;;;;36.46;41.38;99001.06;5128974;27;20194;-66
2022/07/26 09:54:45;;;;;;;8.77;8.07;;;;;;;36.66;38.79;98991.81;5119622;27;20222;-66
2022/07/26 09:57:14;;;;;;;9.43;8.77;;;;;;;36.67;37.94;98990.78;5124168;27;20547;-66
2022/07/26 09:59:41;;;;;;;9.25;8.75;;;;;;;36.87;39.51;98990.53;5128016;27;20259;-67
2022/07/26 10:02:09;;;;;;;8.90;8.35;;;;;;;36.99;40.16;98988.75;5135425;27;20251;-66
2022/07/26 10:04:35;;;;;;;9.43;8.93;;;;;;;36.69;39.01;98979.88;5124493;27;20686;-66
2022/07/26 10:07:03;;;;;;;8.50;8.00;;;;;;;36.74;40.56;98990.69;5130310;27;20206;-66
2022/07/26 10:09:37;;;;;;;9.65;8.98;;;;;;;37.00;38.44;98981.56;5123812;27;20205;-65
2022/07/26 10:12:07;;;;;;;10.77;9.75;;;;;;;37.07;38.31;98977.75;5127976;27;20201;-67
2022/07/26 10:14:40;;;;;;;10.50;9.90;;;;;;;37.13;38.95;98971.50;5123547;27;20228;-67
2022/07/26 10:17:46;;;;;;;10.90;9.93;;;;;;;37.29;38.44;98978.88;5134268;27;20206;-67
2022/07/26 10:20:49;;;;;;;10.25;9.45;;;;;;;37.31;40.21;98963.44;5133913;27;20280;-67
2022/07/26 10:23:47;;;;;;;10.10;9.57;;;;;;;36.91;41.66;98964.16;5051789;28;20204;-67
2022/07/26 10:26:37;;;;;;;10.48;9.88;;;;;;;36.61;39.66;98956.16;4973218;28;20223;-66
2022/07/26 10:29:22;;;;;;;9.65;9.20;;;;;;;36.84;39.75;98958.91;5098961;27;20198;-66
2022/07/26 10:31:50;;;;;;;9.80;9.20;;;;;;;36.87;39.17;98955.78;5123442;27;20207;-70
2022/07/26 10:34:30;;;;;;;10.18;9.48;;;;;;;36.70;39.52;98949.44;5129730;27;20228;-68
2022/07/26 10:36:58;;;;;;;10.38;9.85;;;;;;;36.49;41.33;98940.00;5123363;27;20304;-69
2022/07/26 10:39:26;;;;;;;9.25;8.75;;;;;;;36.37;39.11;98940.97;5126237;27;20198;-67
2022/07/26 10:42:01;;;;;;;9.73;9.07;;;;;;;36.52;39.63;98936.88;5122927;27;20266;-66
2022/07/26 10:44:30;;;;;;;10.48;9.88;;;;;;;36.55;39.63;98935.66;5124486;27;20199;-67
2022/07/26 10:47:02;;;;;;;9.73;9.23;;;;;;;36.89;38.60;98936.88;5131570;27;20332;-67
2022/07/26 10:49:32;;;;;;;10.52;9.85;;;;;;;37.12;38.16;98934.31;5118892;27;20228;-66
2022/07/26 10:52:24;;;;;;;11.10;10.27;;;;;;;37.09;39.39;98927.56;5121378;27;20194;-68
2022/07/26 10:55:16;;;;;;;11.02;10.32;;;;;;;37.18;38.09;98926.19;5114272;27;20610;-68
2022/07/26 10:57:47;;;;;;;11.82;11.10;;;;;;;37.27;38.20;98921.31;5133847;27;20198;-68
2022/07/26 11:00:23;;;;;;;11.60;10.80;;;;;;;37.40;37.82;98906.94;5134611;27;20254;-68
2022/07/26 11:02:55;;;;;;;11.70;10.75;;;;;;;37.59;38.43;98916.50;5127638;27;20200;-70
2022/07/26 11:05:27;;;;;;;10.63;9.93;;;;;;;37.64;38.34;98908.63;5134528;27;20593;-69
2022/07/26 11:08:00;;;;;;;11.15;9.93;;;;;;;37.20;39.18;98907.22;5129339;27;20198;-69
2022/07/26 11:10:32;;;;;;;10.82;10.02;;;;;;;37.16;41.59;98904.19;5126655;27;20199;-69
2022/07/26 11:13:06;;;;;;;9.50;8.90;;;;;;;37.18;38.02;98896.78;5121185;27;20202;-67
2022/07/26 11:15:34;;;;;;;9.90;9.30;;;;;;;37.28;38.95;98888.19;5133148;27;20246;-70
2022/07/26 11:18:12;;;;;;;11.13;10.18;;;;;;;37.28;36.95;98883.69;5124445;27;20201;-69
2022/07/26 11:20:41;;;;;;;9.40;8.80;;;;;;;37.25;37.77;98889.47;5125473;27;20278;-70
2022/07/26 11:23:31;;;;;;;9.75;9.15;;;;;;;37.47;39.14;98880.94;5127484;27;20198;-69
2022/07/26 11:26:11;;;;;;;10.13;9.52;;;;;;;37.32;37.55;98871.44;5130693;27;20270;-68
2022/07/26 11:28:48;;;;;;;9.70;8.88;;;;;;;37.34;37.13;98869.38;5124178;27;20272;-69
2022/07/26 11:31:17;;;;;;;9.23;8.63;;;;;;;37.34;36.29;98871.22;5131370;27;20194;-69
2022/07/26 11:33:47;;;;;;;9.73;9.10;;;;;;;37.45;38.43;98862.38;5133850;27;20198;-69
2022/07/26 11:36:14;;;;;;;10.02;8.80;;;;;;;37.56;35.27;98852.78;5130585;27;20255;-68